sensor_id;sensor_type;location;lat;lon;timestamp;pressure;altitude;pressure_sealevel;temperature;humidity
29385;BME280;16367;48.736;9.218;2023-06-05T00:02:01;-23679.69;;;16.22;52.74
29385;BME280;16367;48.736;9.218;2023-06-05T00:04:05;-23677.50;;;16.15;52.47
29385;BME280;16367;48.736;9.218;2023-06-05T00:06:08;-23676.06;;;16.10;53.04
29385;BME280;16367;48.736;9.218;2023-06-05T00:08:11;-23676.84;;;16.13;52.26
29385;BME280;16367;48.736;9.218;2023-06-05T00:10:14;-23679.69;;;16.22;52.98
29385;BME280;16367;48.736;9.218;2023-06-05T00:12:17;-23678.59;;;16.18;52.06
29385;BME280;16367;48.736;9.218;2023-06-05T00:14:20;-23675.91;;;16.10;52.30
29385;BME280;16367;48.736;9.218;2023-06-05T00:16:23;-23676.22;;;16.11;52.08
29385;BME280;16367;48.736;9.218;2023-06-05T00:18:26;-23680.16;;;16.23;51.95
29385;BME280;16367;48.736;9.218;2023-06-05T00:20:30;-23676.84;;;16.13;51.97
29385;BME280;16367;48.736;9.218;2023-06-05T00:22:33;-23679.06;;;16.20;52.52
29385;BME280;16367;48.736;9.218;2023-06-05T00:24:36;-23674.34;;;16.05;52.36
29385;BME280;16367;48.736;9.218;2023-06-05T00:26:40;-23670.56;;;15.93;52.95
29385;BME280;16367;48.736;9.218;2023-06-05T00:28:43;-23671.19;;;15.95;52.82
29385;BME280;16367;48.736;9.218;2023-06-05T00:30:46;-23670.25;;;15.92;52.84
29385;BME280;16367;48.736;9.218;2023-06-05T00:32:49;-23668.34;;;15.86;53.32
29385;BME280;16367;48.736;9.218;2023-06-05T00:34:52;-23666.78;;;15.81;53.41
29385;BME280;16367;48.736;9.218;2023-06-05T00:36:56;-23665.69;;;15.77;54.51
29385;BME280;16367;48.736;9.218;2023-06-05T00:38:59;-23664.88;;;15.75;53.98
29385;BME280;16367;48.736;9.218;2023-06-05T00:41:02;-23663.31;;;15.70;53.75
29385;BME280;16367;48.736;9.218;2023-06-05T00:43:05;-23666.47;;;15.80;53.96
29385;BME280;16367;48.736;9.218;2023-06-05T00:45:08;-23664.88;;;15.75;53.44
29385;BME280;16367;48.736;9.218;2023-06-05T00:47:11;-23664.56;;;15.74;53.77
29385;BME280;16367;48.736;9.218;2023-06-05T00:49:14;-23661.88;;;15.65;54.24
29385;BME280;16367;48.736;9.218;2023-06-05T00:51:17;-23665.50;;;15.77;53.78
29385;BME280;16367;48.736;9.218;2023-06-05T00:53:23;-23668.34;;;15.86;53.27
29385;BME280;16367;48.736;9.218;2023-06-05T00:55:26;-23663.94;;;15.72;53.70
29385;BME280;16367;48.736;9.218;2023-06-05T00:57:30;-23665.81;;;15.78;53.82
29385;BME280;16367;48.736;9.218;2023-06-05T00:59:36;-23663.00;;;15.68;54.22
29385;BME280;16367;48.736;9.218;2023-06-05T01:01:39;-23661.56;;;15.64;54.57
29385;BME280;16367;48.736;9.218;2023-06-05T01:03:44;-23661.88;;;15.65;55.55
29385;BME280;16367;48.736;9.218;2023-06-05T01:05:49;-23658.56;;;15.54;56.54
29385;BME280;16367;48.736;9.218;2023-06-05T01:07:52;-23656.69;;;15.48;56.12
29385;BME280;16367;48.736;9.218;2023-06-05T01:09:56;-23658.09;;;15.53;55.43
29385;BME280;16367;48.736;9.218;2023-06-05T01:12:05;-23656.06;;;15.46;55.66
29385;BME280;16367;48.736;9.218;2023-06-05T01:14:15;-23652.25;;;15.34;56.83
29385;BME280;16367;48.736;9.218;2023-06-05T01:16:22;-23652.75;;;15.36;57.13
29385;BME280;16367;48.736;9.218;2023-06-05T01:18:32;-23650.53;;;15.29;56.65
29385;BME280;16367;48.736;9.218;2023-06-05T01:20:37;-23647.53;;;15.19;57.57
29385;BME280;16367;48.736;9.218;2023-06-05T01:22:40;-23649.59;;;15.26;57.70
29385;BME280;16367;48.736;9.218;2023-06-05T01:24:45;-23641.38;;;15.00;58.46
29385;BME280;16367;48.736;9.218;2023-06-05T01:26:56;-23643.91;;;15.08;58.64
29385;BME280;16367;48.736;9.218;2023-06-05T01:29:06;-23636.03;;;14.82;59.53
29385;BME280;16367;48.736;9.218;2023-06-05T01:31:16;-23638.88;;;14.91;59.17
29385;BME280;16367;48.736;9.218;2023-06-05T01:33:24;-23632.38;;;14.71;60.69
29385;BME280;16367;48.736;9.218;2023-06-05T01:35:30;-23635.22;;;14.80;60.47
29385;BME280;16367;48.736;9.218;2023-06-05T01:37:41;-23634.28;;;14.77;61.22
29385;BME280;16367;48.736;9.218;2023-06-05T01:39:50;-23639.97;;;14.95;58.44
29385;BME280;16367;48.736;9.218;2023-06-05T01:41:54;-23637.75;;;14.88;60.02
29385;BME280;16367;48.736;9.218;2023-06-05T01:43:58;-23635.22;;;14.80;61.29
29385;BME280;16367;48.736;9.218;2023-06-05T01:46:03;-23634.13;;;14.76;61.56
29385;BME280;16367;48.736;9.218;2023-06-05T01:48:08;-23637.44;;;14.87;60.64
29385;BME280;16367;48.736;9.218;2023-06-05T01:50:12;-23634.75;;;14.78;61.09
29385;BME280;16367;48.736;9.218;2023-06-05T01:52:15;-23631.75;;;14.69;61.72
29385;BME280;16367;48.736;9.218;2023-06-05T01:54:18;-23637.44;;;14.87;59.34
29385;BME280;16367;48.736;9.218;2023-06-05T01:56:26;-23635.06;;;14.79;60.39
29385;BME280;16367;48.736;9.218;2023-06-05T01:58:32;-23642.81;;;15.04;58.29
29385;BME280;16367;48.736;9.218;2023-06-05T02:00:34;-23638.69;;;14.91;59.50
29385;BME280;16367;48.736;9.218;2023-06-05T02:02:38;-23633.66;;;14.75;60.72
29385;BME280;16367;48.736;9.218;2023-06-05T02:04:42;-23632.56;;;14.71;60.37
29385;BME280;16367;48.736;9.218;2023-06-05T02:06:49;-23634.28;;;14.77;59.55
29385;BME280;16367;48.736;9.218;2023-06-05T02:08:54;-23634.44;;;14.77;59.92
29385;BME280;16367;48.736;9.218;2023-06-05T02:10:57;-23631.13;;;14.67;61.09
29385;BME280;16367;48.736;9.218;2023-06-05T02:13:05;-23631.13;;;14.67;61.01
29385;BME280;16367;48.736;9.218;2023-06-05T02:15:08;-23628.59;;;14.59;61.93
29385;BME280;16367;48.736;9.218;2023-06-05T02:17:14;-23628.59;;;14.59;61.88
29385;BME280;16367;48.736;9.218;2023-06-05T02:19:17;-23628.91;;;14.60;61.73
29385;BME280;16367;48.736;9.218;2023-06-05T02:21:20;-23629.88;;;14.63;61.71
29385;BME280;16367;48.736;9.218;2023-06-05T02:23:23;-23626.06;;;14.51;62.29
29385;BME280;16367;48.736;9.218;2023-06-05T02:25:26;-23627.03;;;14.54;62.30
29385;BME280;16367;48.736;9.218;2023-06-05T02:27:29;-23626.53;;;14.52;62.19
29385;BME280;16367;48.736;9.218;2023-06-05T02:29:34;-23627.03;;;14.54;62.49
29385;BME280;16367;48.736;9.218;2023-06-05T02:31:38;-23624.66;;;14.46;62.83
29385;BME280;16367;48.736;9.218;2023-06-05T02:33:41;-23623.22;;;14.42;63.18
29385;BME280;16367;48.736;9.218;2023-06-05T02:35:44;-23624.81;;;14.47;62.36
29385;BME280;16367;48.736;9.218;2023-06-05T02:37:47;-23623.06;;;14.41;62.74
29385;BME280;16367;48.736;9.218;2023-06-05T02:39:50;-23623.22;;;14.42;63.06
29385;BME280;16367;48.736;9.218;2023-06-05T02:41:53;-23623.72;;;14.43;63.05
29385;BME280;16367;48.736;9.218;2023-06-05T02:43:57;-23620.41;;;14.33;63.87
29385;BME280;16367;48.736;9.218;2023-06-05T02:46:02;-23622.59;;;14.40;62.31
29385;BME280;16367;48.736;9.218;2023-06-05T02:48:05;-23618.81;;;14.28;63.81
29385;BME280;16367;48.736;9.218;2023-06-05T02:50:09;-23615.97;;;14.18;64.72
29385;BME280;16367;48.736;9.218;2023-06-05T02:52:12;-23619.13;;;14.29;64.56
29385;BME280;16367;48.736;9.218;2023-06-05T02:54:14;-23621.19;;;14.35;63.08
29385;BME280;16367;48.736;9.218;2023-06-05T02:56:17;-23621.81;;;14.37;63.24
29385;BME280;16367;48.736;9.218;2023-06-05T02:58:20;-23620.72;;;14.34;63.71
29385;BME280;16367;48.736;9.218;2023-06-05T03:00:23;-23616.28;;;14.19;64.11
29385;BME280;16367;48.736;9.218;2023-06-05T03:02:29;-23617.38;;;14.23;63.75
29385;BME280;16367;48.736;9.218;2023-06-05T03:04:32;-23617.88;;;14.25;64.44
29385;BME280;16367;48.736;9.218;2023-06-05T03:06:35;-23618.34;;;14.26;62.94
29385;BME280;16367;48.736;9.218;2023-06-05T03:08:38;-23618.03;;;14.25;62.88
29385;BME280;16367;48.736;9.218;2023-06-05T03:10:42;-23615.66;;;14.17;63.28
29385;BME280;16367;48.736;9.218;2023-06-05T03:12:44;-23614.38;;;14.13;63.95
29385;BME280;16367;48.736;9.218;2023-06-05T03:14:47;-23612.19;;;14.06;64.48
29385;BME280;16367;48.736;9.218;2023-06-05T03:16:50;-23612.81;;;14.08;63.32
29385;BME280;16367;48.736;9.218;2023-06-05T03:18:56;-23614.06;;;14.12;63.86
29385;BME280;16367;48.736;9.218;2023-06-05T03:20:59;-23613.91;;;14.12;63.40
29385;BME280;16367;48.736;9.218;2023-06-05T03:23:02;-23615.66;;;14.17;63.32
29385;BME280;16367;48.736;9.218;2023-06-05T03:25:05;-23614.72;;;14.14;63.39
29385;BME280;16367;48.736;9.218;2023-06-05T03:27:09;-23623.22;;;14.42;60.83
29385;BME280;16367;48.736;9.218;2023-06-05T03:29:12;-23619.44;;;14.30;61.85
29385;BME280;16367;48.736;9.218;2023-06-05T03:31:16;-23614.72;;;14.14;62.59
29385;BME280;16367;48.736;9.218;2023-06-05T03:33:20;-23616.75;;;14.21;63.45
29385;BME280;16367;48.736;9.218;2023-06-05T03:35:24;-23615.97;;;14.18;63.14
29385;BME280;16367;48.736;9.218;2023-06-05T03:37:28;-23610.13;;;14.00;63.53
29385;BME280;16367;48.736;9.218;2023-06-05T03:39:30;-23606.81;;;13.89;64.84
29385;BME280;16367;48.736;9.218;2023-06-05T03:41:33;-23606.50;;;13.88;64.68
29385;BME280;16367;48.736;9.218;2023-06-05T03:43:36;-23609.66;;;13.98;64.99
29385;BME280;16367;48.736;9.218;2023-06-05T03:45:39;-23610.13;;;14.00;65.22
29385;BME280;16367;48.736;9.218;2023-06-05T03:47:42;-23612.81;;;14.08;64.09
29385;BME280;16367;48.736;9.218;2023-06-05T03:49:46;-23613.44;;;14.10;64.14
29385;BME280;16367;48.736;9.218;2023-06-05T03:51:50;-23615.81;;;14.18;64.46
29385;BME280;16367;48.736;9.218;2023-06-05T03:53:53;-23611.22;;;14.03;65.01
29385;BME280;16367;48.736;9.218;2023-06-05T03:55:56;-23609.03;;;13.96;65.62
29385;BME280;16367;48.736;9.218;2023-06-05T03:58:01;-23613.91;;;14.12;65.27
29385;BME280;16367;48.736;9.218;2023-06-05T04:00:06;-23609.66;;;13.98;65.67
29385;BME280;16367;48.736;9.218;2023-06-05T04:02:10;-23608.88;;;13.96;66.47
29385;BME280;16367;48.736;9.218;2023-06-05T04:04:14;-23609.03;;;13.96;66.40
29385;BME280;16367;48.736;9.218;2023-06-05T04:06:17;-23613.75;;;14.11;67.50
29385;BME280;16367;48.736;9.218;2023-06-05T04:08:21;-23616.75;;;14.21;67.19
29385;BME280;16367;48.736;9.218;2023-06-05T04:10:24;-23631.75;;;14.69;64.45
29385;BME280;16367;48.736;9.218;2023-06-05T04:12:27;-23641.22;;;14.99;64.15
29385;BME280;16367;48.736;9.218;2023-06-05T04:14:30;-23661.41;;;15.63;60.35
29385;BME280;16367;48.736;9.218;2023-06-05T04:16:33;-23687.41;;;16.47;58.18
29385;BME280;16367;48.736;9.218;2023-06-05T04:18:36;-23682.84;;;16.32;59.47
29385;BME280;16367;48.736;9.218;2023-06-05T04:20:39;-23676.84;;;16.13;60.27
29385;BME280;16367;48.736;9.218;2023-06-05T04:22:42;-23722.84;;;17.60;56.94
29385;BME280;16367;48.736;9.218;2023-06-05T04:24:46;-23697.97;;;16.80;58.69
29385;BME280;16367;48.736;9.218;2023-06-05T04:26:49;-23712.63;;;17.27;58.32
29385;BME280;16367;48.736;9.218;2023-06-05T04:28:52;-23743.78;;;18.27;55.21
29385;BME280;16367;48.736;9.218;2023-06-05T04:30:57;-23749.59;;;18.45;54.35
29385;BME280;16367;48.736;9.218;2023-06-05T04:33:00;-23722.84;;;17.60;56.23
29385;BME280;16367;48.736;9.218;2023-06-05T04:35:03;-23752.25;;;18.54;54.01
29385;BME280;16367;48.736;9.218;2023-06-05T04:37:06;-23756.19;;;18.67;53.51
29385;BME280;16367;48.736;9.218;2023-06-05T04:39:10;-23791.38;;;19.79;49.79
29385;BME280;16367;48.736;9.218;2023-06-05T04:41:17;-23777.25;;;19.34;51.01
29385;BME280;16367;48.736;9.218;2023-06-05T04:43:23;-23763.41;;;18.90;51.99
29385;BME280;16367;48.736;9.218;2023-06-05T04:45:25;-23754.94;;;18.63;52.80
29385;BME280;16367;48.736;9.218;2023-06-05T04:47:28;-23752.25;;;18.54;54.59
29385;BME280;16367;48.736;9.218;2023-06-05T04:49:31;-23773.78;;;19.23;52.27
29385;BME280;16367;48.736;9.218;2023-06-05T04:51:34;-23763.25;;;18.89;54.06
29385;BME280;16367;48.736;9.218;2023-06-05T04:53:38;-23777.88;;;19.36;51.37
29385;BME280;16367;48.736;9.218;2023-06-05T04:55:43;-23784.78;;;19.58;50.70
29385;BME280;16367;48.736;9.218;2023-06-05T04:57:48;-23777.09;;;19.33;48.91
29385;BME280;16367;48.736;9.218;2023-06-05T04:59:51;-23774.41;;;19.25;49.67
29385;BME280;16367;48.736;9.218;2023-06-05T05:01:55;-23783.22;;;19.53;50.42
29385;BME280;16367;48.736;9.218;2023-06-05T05:04:00;-23785.09;;;19.59;50.42
29385;BME280;16367;48.736;9.218;2023-06-05T05:06:03;-23756.66;;;18.68;50.22
29385;BME280;16367;48.736;9.218;2023-06-05T05:08:06;-23783.06;;;19.53;48.67
29385;BME280;16367;48.736;9.218;2023-06-05T05:10:10;-23781.97;;;19.49;48.14
29385;BME280;16367;48.736;9.218;2023-06-05T05:12:12;-23788.09;;;19.69;47.65
29385;BME280;16367;48.736;9.218;2023-06-05T05:14:17;-23769.06;;;19.08;49.48
29385;BME280;16367;48.736;9.218;2023-06-05T05:16:20;-23763.41;;;18.90;48.32
29385;BME280;16367;48.736;9.218;2023-06-05T05:18:24;-23777.72;;;19.36;47.90
29385;BME280;16367;48.736;9.218;2023-06-05T05:20:27;-23761.22;;;18.83;49.15
29385;BME280;16367;48.736;9.218;2023-06-05T05:22:30;-23756.34;;;18.67;48.60
29385;BME280;16367;48.736;9.218;2023-06-05T05:24:33;-23766.25;;;18.99;48.42
29385;BME280;16367;48.736;9.218;2023-06-05T05:26:36;-23765.94;;;18.98;49.58
29385;BME280;16367;48.736;9.218;2023-06-05T05:28:41;-23774.25;;;19.24;49.07
29385;BME280;16367;48.736;9.218;2023-06-05T05:30:45;-23734.81;;;17.98;50.31
29385;BME280;16367;48.736;9.218;2023-06-05T05:32:48;-23746.28;;;18.35;49.99
29385;BME280;16367;48.736;9.218;2023-06-05T05:34:51;-23738.25;;;18.09;50.14
29385;BME280;16367;48.736;9.218;2023-06-05T05:36:54;-23742.03;;;18.21;50.10
29385;BME280;16367;48.736;9.218;2023-06-05T05:38:57;-23739.22;;;18.12;50.99
29385;BME280;16367;48.736;9.218;2023-06-05T05:40:59;-23724.59;;;17.65;50.83
29385;BME280;16367;48.736;9.218;2023-06-05T05:43:02;-23743.13;;;18.25;50.59
29385;BME280;16367;48.736;9.218;2023-06-05T05:45:06;-23732.28;;;17.90;51.16
29385;BME280;16367;48.736;9.218;2023-06-05T05:47:11;-23749.91;;;18.46;50.81
29385;BME280;16367;48.736;9.218;2023-06-05T05:49:13;-23773.63;;;19.22;49.58
29385;BME280;16367;48.736;9.218;2023-06-05T05:51:17;-23767.81;;;19.04;49.93
29385;BME280;16367;48.736;9.218;2023-06-05T05:53:20;-23770.66;;;19.13;49.98
29385;BME280;16367;48.736;9.218;2023-06-05T05:55:23;-23736.22;;;18.03;52.22
29385;BME280;16367;48.736;9.218;2023-06-05T05:57:26;-23747.84;;;18.40;52.26
29385;BME280;16367;48.736;9.218;2023-06-05T05:59:29;-23752.09;;;18.53;51.75
29385;BME280;16367;48.736;9.218;2023-06-05T06:01:32;-23769.69;;;19.10;51.83
29385;BME280;16367;48.736;9.218;2023-06-05T06:03:36;-23764.50;;;18.93;52.31
29385;BME280;16367;48.736;9.218;2023-06-05T06:05:40;-23755.56;;;18.65;52.78
29385;BME280;16367;48.736;9.218;2023-06-05T06:07:43;-23767.66;;;19.03;52.20
29385;BME280;16367;48.736;9.218;2023-06-05T06:09:46;-23758.38;;;18.74;51.70
29385;BME280;16367;48.736;9.218;2023-06-05T06:11:49;-23770.34;;;19.12;49.63
29385;BME280;16367;48.736;9.218;2023-06-05T06:13:51;-23783.84;;;19.55;49.08
29385;BME280;16367;48.736;9.218;2023-06-05T06:15:54;-23762.16;;;18.86;50.47
29385;BME280;16367;48.736;9.218;2023-06-05T06:17:58;-23766.88;;;19.01;50.43
29385;BME280;16367;48.736;9.218;2023-06-05T06:20:03;-23748.94;;;18.43;52.66
29385;BME280;16367;48.736;9.218;2023-06-05T06:22:06;-23781.50;;;19.48;50.47
29385;BME280;16367;48.736;9.218;2023-06-05T06:24:13;-23779.75;;;19.42;49.72
29385;BME280;16367;48.736;9.218;2023-06-05T06:26:17;-23786.97;;;19.65;49.32
29385;BME280;16367;48.736;9.218;2023-06-05T06:28:20;-23776.63;;;19.32;50.99
29385;BME280;16367;48.736;9.218;2023-06-05T06:30:23;-23798.91;;;20.03;50.11
29385;BME280;16367;48.736;9.218;2023-06-05T06:32:26;-23776.94;;;19.33;50.66
29385;BME280;16367;48.736;9.218;2023-06-05T06:34:29;-23761.69;;;18.84;51.44
29385;BME280;16367;48.736;9.218;2023-06-05T06:36:33;-23772.84;;;19.20;52.68
29385;BME280;16367;48.736;9.218;2023-06-05T06:38:36;-23770.34;;;19.12;53.15
29385;BME280;16367;48.736;9.218;2023-06-05T06:40:38;-23765.63;;;18.97;53.19
29385;BME280;16367;48.736;9.218;2023-06-05T06:42:41;-23782.91;;;19.52;52.06
29385;BME280;16367;48.736;9.218;2023-06-05T06:44:44;-23781.19;;;19.47;52.43
29385;BME280;16367;48.736;9.218;2023-06-05T06:46:47;-23797.97;;;20.00;52.19
29385;BME280;16367;48.736;9.218;2023-06-05T06:48:50;-23803.94;;;20.20;50.34
29385;BME280;16367;48.736;9.218;2023-06-05T06:50:53;-23825.13;;;20.88;48.55
29385;BME280;16367;48.736;9.218;2023-06-05T06:52:57;-23798.44;;;20.02;51.88
29385;BME280;16367;48.736;9.218;2023-06-05T06:55:00;-23800.78;;;20.09;51.38
29385;BME280;16367;48.736;9.218;2023-06-05T06:57:03;-23817.75;;;20.64;51.03
29385;BME280;16367;48.736;9.218;2023-06-05T06:59:13;-23800.00;;;20.07;51.65
29385;BME280;16367;48.736;9.218;2023-06-05T07:01:16;-23775.34;;;19.28;52.53
29385;BME280;16367;48.736;9.218;2023-06-05T07:03:21;-23787.44;;;19.67;51.53
29385;BME280;16367;48.736;9.218;2023-06-05T07:05:25;-23817.91;;;20.64;50.89
29385;BME280;16367;48.736;9.218;2023-06-05T07:07:27;-23805.97;;;20.26;51.15
29385;BME280;16367;48.736;9.218;2023-06-05T07:09:32;-23833.13;;;21.13;48.63
29385;BME280;16367;48.736;9.218;2023-06-05T07:11:35;-23821.34;;;20.75;48.43
29385;BME280;16367;48.736;9.218;2023-06-05T07:13:38;-23806.44;;;20.28;51.61
29385;BME280;16367;48.736;9.218;2023-06-05T07:15:41;-23847.22;;;21.59;47.13
29385;BME280;16367;48.736;9.218;2023-06-05T07:17:44;-23867.88;;;22.25;46.09
29385;BME280;16367;48.736;9.218;2023-06-05T07:19:47;-23843.00;;;21.45;47.78
29385;BME280;16367;48.736;9.218;2023-06-05T07:21:50;-23837.03;;;21.26;48.17
29385;BME280;16367;48.736;9.218;2023-06-05T07:23:52;-23833.44;;;21.14;48.13
29385;BME280;16367;48.736;9.218;2023-06-05T07:25:57;-23888.88;;;22.92;45.87
29385;BME280;16367;48.736;9.218;2023-06-05T07:28:00;-23864.13;;;22.13;46.79
29385;BME280;16367;48.736;9.218;2023-06-05T07:30:04;-23896.06;;;23.16;44.53
29385;BME280;16367;48.736;9.218;2023-06-05T07:32:07;-23937.63;;;24.50;42.87
29385;BME280;16367;48.736;9.218;2023-06-05T07:34:09;-23947.78;;;24.82;43.22
29385;BME280;16367;48.736;9.218;2023-06-05T07:36:14;-23914.50;;;23.75;44.36
29385;BME280;16367;48.736;9.218;2023-06-05T07:38:17;-23861.31;;;22.04;46.78
29385;BME280;16367;48.736;9.218;2023-06-05T07:40:44;-23885.56;;;22.82;45.45
29385;BME280;16367;48.736;9.218;2023-06-05T07:43:12;-23869.75;;;22.31;47.60
29385;BME280;16367;48.736;9.218;2023-06-05T07:45:16;-23872.59;;;22.40;47.42
29385;BME280;16367;48.736;9.218;2023-06-05T07:47:19;-23862.56;;;22.08;47.54
29385;BME280;16367;48.736;9.218;2023-06-05T07:49:23;-23867.88;;;22.25;47.06
29385;BME280;16367;48.736;9.218;2023-06-05T07:51:27;-23893.88;;;23.09;46.85
29385;BME280;16367;48.736;9.218;2023-06-05T07:53:29;-23939.50;;;24.56;44.12
29385;BME280;16367;48.736;9.218;2023-06-05T07:55:32;-23890.13;;;22.96;46.94
29385;BME280;16367;48.736;9.218;2023-06-05T07:57:35;-23894.34;;;23.10;47.96
29385;BME280;16367;48.736;9.218;2023-06-05T07:59:40;-23900.75;;;23.31;47.48
29385;BME280;16367;48.736;9.218;2023-06-05T08:01:42;-23955.91;;;25.08;43.73
29385;BME280;16367;48.736;9.218;2023-06-05T08:03:46;-24020.28;;;27.16;41.32
29385;BME280;16367;48.736;9.218;2023-06-05T08:05:49;-23969.78;;;25.53;43.76
29385;BME280;16367;48.736;9.218;2023-06-05T08:07:52;-23974.31;;;25.68;43.46
29385;BME280;16367;48.736;9.218;2023-06-05T08:09:56;-23927.63;;;24.17;46.26
29385;BME280;16367;48.736;9.218;2023-06-05T08:11:58;-23947.00;;;24.80;45.79
29385;BME280;16367;48.736;9.218;2023-06-05T08:14:01;-23995.03;;;26.35;41.98
29385;BME280;16367;48.736;9.218;2023-06-05T08:16:06;-23996.28;;;26.39;41.92
29385;BME280;16367;48.736;9.218;2023-06-05T08:18:09;-23975.56;;;25.72;42.61
29385;BME280;16367;48.736;9.218;2023-06-05T08:20:12;-23988.50;;;26.14;43.47
29385;BME280;16367;48.736;9.218;2023-06-05T08:22:15;-23994.13;;;26.32;43.19
29385;BME280;16367;48.736;9.218;2023-06-05T08:24:18;-23982.88;;;25.96;43.58
29385;BME280;16367;48.736;9.218;2023-06-05T08:26:21;-24017.16;;;27.06;41.29
29385;BME280;16367;48.736;9.218;2023-06-05T08:28:24;-23985.06;;;26.03;43.10
29385;BME280;16367;48.736;9.218;2023-06-05T08:30:27;-23964.47;;;25.36;44.71
29385;BME280;16367;48.736;9.218;2023-06-05T08:32:31;-23948.56;;;24.85;45.22
29385;BME280;16367;48.736;9.218;2023-06-05T08:34:34;-23885.56;;;22.82;49.49
29385;BME280;16367;48.736;9.218;2023-06-05T08:36:37;-23911.06;;;23.64;48.26
29385;BME280;16367;48.736;9.218;2023-06-05T08:38:40;-23891.06;;;22.99;50.59
29385;BME280;16367;48.736;9.218;2023-06-05T08:40:43;-23922.94;;;24.02;48.16
29385;BME280;16367;48.736;9.218;2023-06-05T08:42:52;-23899.19;;;23.26;48.79
29385;BME280;16367;48.736;9.218;2023-06-05T08:44:55;-23905.13;;;23.45;49.20
29385;BME280;16367;48.736;9.218;2023-06-05T08:47:04;-23934.34;;;24.39;46.64
29385;BME280;16367;48.736;9.218;2023-06-05T08:49:12;-23972.91;;;25.63;46.08
29385;BME280;16367;48.736;9.218;2023-06-05T08:51:19;-23963.06;;;25.32;45.44
29385;BME280;16367;48.736;9.218;2023-06-05T08:53:23;-23942.78;;;24.66;46.57
29385;BME280;16367;48.736;9.218;2023-06-05T08:55:28;-23933.56;;;24.36;47.81
29385;BME280;16367;48.736;9.218;2023-06-05T08:57:31;-23968.38;;;25.49;46.31
29385;BME280;16367;48.736;9.218;2023-06-05T08:59:34;-23960.75;;;25.24;46.57
29385;BME280;16367;48.736;9.218;2023-06-05T09:01:37;-23974.16;;;25.67;45.49
29385;BME280;16367;48.736;9.218;2023-06-05T09:03:40;-24004.84;;;26.67;43.70
29385;BME280;16367;48.736;9.218;2023-06-05T09:05:45;-24017.94;;;27.09;43.93
29385;BME280;16367;48.736;9.218;2023-06-05T09:07:47;-23977.75;;;25.79;45.78
29385;BME280;16367;48.736;9.218;2023-06-05T09:09:51;-24011.72;;;26.89;43.41
29385;BME280;16367;48.736;9.218;2023-06-05T09:12:01;-23936.38;;;24.46;48.89
29385;BME280;16367;48.736;9.218;2023-06-05T09:14:04;-23939.50;;;24.56;48.39
29385;BME280;16367;48.736;9.218;2023-06-05T09:16:06;-23966.38;;;25.42;46.35
29385;BME280;16367;48.736;9.218;2023-06-05T09:18:11;-23995.66;;;26.37;45.24
29385;BME280;16367;48.736;9.218;2023-06-05T09:20:23;-24024.00;;;27.28;42.50
29385;BME280;16367;48.736;9.218;2023-06-05T09:22:33;-24047.97;;;28.06;40.85
29385;BME280;16367;48.736;9.218;2023-06-05T09:24:37;-23997.84;;;26.44;44.29
29385;BME280;16367;48.736;9.218;2023-06-05T09:26:55;-23979.63;;;25.85;46.07
29385;BME280;16367;48.736;9.218;2023-06-05T09:28:59;-24022.47;;;27.23;43.52
29385;BME280;16367;48.736;9.218;2023-06-05T09:31:04;-24006.72;;;26.73;44.30
29385;BME280;16367;48.736;9.218;2023-06-05T09:33:10;-24008.13;;;26.77;43.98
29385;BME280;16367;48.736;9.218;2023-06-05T09:35:16;-24013.13;;;26.93;42.29
29385;BME280;16367;48.736;9.218;2023-06-05T09:37:33;-23993.63;;;26.30;44.78
29385;BME280;16367;48.736;9.218;2023-06-05T09:39:39;-23932.63;;;24.33;48.47
29385;BME280;16367;48.736;9.218;2023-06-05T09:41:42;-23968.53;;;25.49;46.38
29385;BME280;16367;48.736;9.218;2023-06-05T09:43:46;-23978.84;;;25.82;45.65
29385;BME280;16367;48.736;9.218;2023-06-05T09:45:52;-23969.16;;;25.51;45.79
29385;BME280;16367;48.736;9.218;2023-06-05T09:48:12;-23930.59;;;24.27;48.97
29385;BME280;16367;48.736;9.218;2023-06-05T09:50:21;-23946.84;;;24.79;48.73
29385;BME280;16367;48.736;9.218;2023-06-05T09:52:24;-24029.94;;;27.48;43.18
29385;BME280;16367;48.736;9.218;2023-06-05T09:54:30;-23965.56;;;25.40;45.86
29385;BME280;16367;48.736;9.218;2023-06-05T09:56:33;-23969.47;;;25.52;46.30
29385;BME280;16367;48.736;9.218;2023-06-05T09:58:37;-23921.22;;;23.97;49.58
29385;BME280;16367;48.736;9.218;2023-06-05T10:00:40;-23943.25;;;24.68;47.99
29385;BME280;16367;48.736;9.218;2023-06-05T10:02:44;-23949.66;;;24.88;46.85
29385;BME280;16367;48.736;9.218;2023-06-05T10:04:49;-23961.03;;;25.25;47.39
29385;BME280;16367;48.736;9.218;2023-06-05T10:06:57;-24005.63;;;26.69;44.83
29385;BME280;16367;48.736;9.218;2023-06-05T10:09:01;-24011.88;;;26.89;44.05
29385;BME280;16367;48.736;9.218;2023-06-05T10:11:06;-24003.75;;;26.63;44.51
29385;BME280;16367;48.736;9.218;2023-06-05T10:13:10;-23996.91;;;26.41;43.38
29385;BME280;16367;48.736;9.218;2023-06-05T10:15:13;-23999.41;;;26.49;43.37
29385;BME280;16367;48.736;9.218;2023-06-05T10:17:17;-23990.53;;;26.20;44.80
29385;BME280;16367;48.736;9.218;2023-06-05T10:19:21;-24011.88;;;26.89;43.27
29385;BME280;16367;48.736;9.218;2023-06-05T10:21:26;-23993.78;;;26.31;44.88
29385;BME280;16367;48.736;9.218;2023-06-05T10:23:30;-23970.25;;;25.55;45.11
29385;BME280;16367;48.736;9.218;2023-06-05T10:25:33;-23936.06;;;24.44;47.63
29385;BME280;16367;48.736;9.218;2023-06-05T10:27:53;-23944.50;;;24.72;45.78
29385;BME280;16367;48.736;9.218;2023-06-05T10:32:43;-23902.31;;;23.36;49.65
29385;BME280;16367;48.736;9.218;2023-06-05T10:34:59;-23889.19;;;22.93;50.52
29385;BME280;16367;48.736;9.218;2023-06-05T10:37:44;-23900.44;;;23.30;48.09
29385;BME280;16367;48.736;9.218;2023-06-05T10:39:51;-23907.78;;;23.53;48.01
29385;BME280;16367;48.736;9.218;2023-06-05T10:41:54;-23916.06;;;23.80;46.41
29385;BME280;16367;48.736;9.218;2023-06-05T10:43:58;-23937.78;;;24.50;45.23
29385;BME280;16367;48.736;9.218;2023-06-05T10:46:02;-23930.59;;;24.27;44.90
29385;BME280;16367;48.736;9.218;2023-06-05T10:48:11;-23930.13;;;24.25;45.38
29385;BME280;16367;48.736;9.218;2023-06-05T10:50:22;-23924.34;;;24.07;45.00
29385;BME280;16367;48.736;9.218;2023-06-05T10:52:35;-23957.31;;;25.13;44.11
29385;BME280;16367;48.736;9.218;2023-06-05T10:54:54;-23937.16;;;24.48;43.72